Time;durP1;ratioP1;P1;durP2;ratioP2;P2;SDS_P1;SDS_P2;PMS_P1;PMS_P2;Temp;Humidity;BMP_temperature;BMP_pressure;BME280_temperature;BME280_humidity;BME280_pressure;Samples;Min_cycle;Max_cycle;Signal;HPM_P1;HPM_P2
2022/09/01 00:01:36;;;;;;;4.63;1.70;;;14.20;99.90;;;;;;5113679;27;20047;-65
2022/09/01 00:04:03;;;;;;;3.47;1.30;;;14.10;99.90;;;;;;5108255;27;20046;-65
2022/09/01 00:06:31;;;;;;;2.75;1.30;;;14.10;99.90;;;;;;5112376;27;20039;-69
2022/09/01 00:08:59;;;;;;;3.15;1.42;;;14.10;99.90;;;;;;5115049;27;20131;-68
2022/09/01 00:11:26;;;;;;;3.47;1.42;;;14.10;99.90;;;;;;5112419;27;20048;-67
2022/09/01 00:13:53;;;;;;;3.08;1.30;;;14.00;99.90;;;;;;5106745;27;20035;-65
2022/09/01 00:16:19;;;;;;;4.45;1.85;;;14.00;99.90;;;;;;5109812;27;20035;-68
2022/09/01 00:18:48;;;;;;;2.28;1.30;;;14.00;99.90;;;;;;5114078;27;20043;-67
2022/09/01 00:21:16;;;;;;;3.80;1.25;;;14.00;99.90;;;;;;5111570;27;20151;-67
2022/09/01 00:23:42;;;;;;;2.03;1.20;;;14.00;99.90;;;;;;5087046;28;20047;-67
2022/09/01 00:26:08;;;;;;;3.90;1.20;;;13.90;99.90;;;;;;5120859;27;20039;-67
2022/09/01 00:28:35;;;;;;;1.88;1.40;;;13.90;99.90;;;;;;5114170;27;20050;-67
2022/09/01 00:31:01;;;;;;;4.68;1.40;;;13.90;99.90;;;;;;5108661;28;20047;-65
2022/09/01 00:33:27;;;;;;;3.78;1.35;;;13.90;99.90;;;;;;5109465;28;20036;-65
2022/09/01 00:35:53;;;;;;;3.58;1.35;;;13.80;99.90;;;;;;5113475;27;20041;-66
2022/09/01 00:38:19;;;;;;;2.25;1.30;;;13.90;99.90;;;;;;5127393;27;20122;-67
2022/09/01 00:40:45;;;;;;;3.47;1.48;;;13.80;99.90;;;;;;5108629;27;20042;-65
2022/09/01 00:43:23;;;;;;;3.15;1.60;;;13.80;99.90;;;;;;5118862;27;20401;-66
2022/09/01 00:45:50;;;;;;;2.10;1.40;;;13.80;99.90;;;;;;5106372;27;20489;-65
2022/09/01 00:48:18;;;;;;;4.40;1.70;;;13.70;99.90;;;;;;5113578;27;20038;-67
2022/09/01 00:50:45;;;;;;;2.42;1.20;;;13.70;99.90;;;;;;5111394;27;20040;-65
2022/09/01 00:53:11;;;;;;;2.95;1.60;;;13.70;99.90;;;;;;5115978;27;20036;-66
2022/09/01 00:55:37;;;;;;;2.40;1.35;;;13.70;99.90;;;;;;5114767;27;20041;-66
2022/09/01 00:58:05;;;;;;;2.13;1.20;;;13.70;99.90;;;;;;5110439;27;20091;-66
2022/09/01 01:00:33;;;;;;;2.47;1.40;;;13.70;99.90;;;;;;5109638;28;20039;-68
2022/09/01 01:02:59;;;;;;;3.17;1.38;;;13.60;99.90;;;;;;5110798;27;20039;-64
2022/09/01 01:05:32;;;;;;;3.75;1.40;;;13.60;99.90;;;;;;5102692;27;20059;-66
2022/09/01 01:08:00;;;;;;;6.38;1.30;;;13.60;99.90;;;;;;5109932;27;20039;-67
2022/09/01 01:10:31;;;;;;;3.28;1.75;;;13.60;99.90;;;;;;5120158;27;20103;-66
2022/09/01 01:13:00;;;;;;;2.85;1.40;;;13.60;99.90;;;;;;5120868;27;20477;-65
2022/09/01 01:15:28;;;;;;;3.35;1.48;;;13.50;99.90;;;;;;5107839;27;20036;-65
2022/09/01 01:17:54;;;;;;;2.38;1.27;;;13.50;99.90;;;;;;5106450;28;20035;-65
2022/09/01 01:23:29;;;;;;;2.28;1.35;;;13.50;99.90;;;;;;5111308;27;21045;-65
2022/09/01 01:25:59;;;;;;;2.90;1.42;;;13.40;99.90;;;;;;5109178;27;20035;-67
2022/09/01 01:28:30;;;;;;;2.08;1.50;;;13.40;99.90;;;;;;5115936;27;20043;-64
2022/09/01 01:31:00;;;;;;;3.10;1.48;;;13.40;99.90;;;;;;5113223;27;20172;-67
2022/09/01 01:33:39;;;;;;;2.03;1.27;;;13.40;99.90;;;;;;5111962;27;20529;-68
2022/09/01 01:36:06;;;;;;;2.78;1.30;;;13.30;99.90;;;;;;5111792;27;20398;-67
2022/09/01 01:38:34;;;;;;;2.20;1.48;;;13.30;99.90;;;;;;5123076;27;20039;-66
2022/09/01 01:41:01;;;;;;;3.25;1.35;;;13.30;99.90;;;;;;5096730;27;20132;-65
2022/09/01 01:43:27;;;;;;;1.83;1.20;;;13.30;99.90;;;;;;5118452;27;20038;-66
2022/09/01 01:46:01;;;;;;;1.90;1.33;;;13.20;99.90;;;;;;5105459;28;20039;-66
2022/09/01 01:48:28;;;;;;;2.42;1.30;;;13.20;99.90;;;;;;5108156;27;20028;-67
2022/09/01 01:50:59;;;;;;;2.17;1.40;;;13.20;99.90;;;;;;5120412;27;20035;-67
2022/09/01 01:53:25;;;;;;;2.80;1.35;;;13.10;99.90;;;;;;5117436;27;20111;-67
2022/09/01 01:55:51;;;;;;;2.50;1.60;;;13.10;99.90;;;;;;5120598;27;20039;-67
2022/09/01 01:58:19;;;;;;;1.33;1.23;;;13.10;99.90;;;;;;5120112;27;20155;-68
2022/09/01 02:00:46;;;;;;;2.17;1.50;;;13.10;99.90;;;;;;5090230;28;20077;-67
2022/09/01 02:03:17;;;;;;;2.67;1.50;;;13.10;99.90;;;;;;5113897;28;20035;-65
2022/09/01 02:05:48;;;;;;;3.95;1.20;;;13.10;99.90;;;;;;5104978;28;20047;-66
2022/09/01 02:08:17;;;;;;;2.30;1.50;;;13.00;99.90;;;;;;5114075;28;20366;-65
2022/09/01 02:10:44;;;;;;;3.72;1.40;;;13.00;99.90;;;;;;5108338;28;20032;-67
2022/09/01 02:13:15;;;;;;;1.52;1.35;;;13.00;99.90;;;;;;5119669;27;20035;-68
2022/09/01 02:15:44;;;;;;;1.90;1.40;;;12.90;99.90;;;;;;5106444;27;20389;-65
2022/09/01 02:18:13;;;;;;;2.63;1.45;;;12.90;99.90;;;;;;5117936;27;20133;-63
2022/09/01 02:20:39;;;;;;;2.45;1.30;;;12.80;99.90;;;;;;5115898;27;20327;-68
2022/09/01 02:23:09;;;;;;;2.80;1.50;;;12.80;99.90;;;;;;5118017;27;20036;-65
2022/09/01 02:25:37;;;;;;;2.15;1.50;;;12.80;99.90;;;;;;5115390;27;20067;-66
2022/09/01 02:28:04;;;;;;;2.20;1.60;;;12.90;99.90;;;;;;5130235;27;20123;-66
2022/09/01 02:30:33;;;;;;;3.45;1.20;;;12.80;99.90;;;;;;5109687;27;20083;-66
2022/09/01 02:32:59;;;;;;;3.33;1.38;;;12.90;99.90;;;;;;5116332;27;20032;-67
2022/09/01 02:35:33;;;;;;;2.35;1.77;;;12.80;99.90;;;;;;5116496;27;20433;-64
2022/09/01 02:37:59;;;;;;;3.65;1.50;;;12.80;99.90;;;;;;5122098;27;20031;-66
2022/09/01 02:40:30;;;;;;;2.40;1.30;;;12.80;99.90;;;;;;5112313;28;20032;-67
2022/09/01 02:42:59;;;;;;;3.15;1.30;;;12.80;99.90;;;;;;5113326;27;21166;-67
2022/09/01 02:45:28;;;;;;;3.15;1.48;;;12.80;99.90;;;;;;5112595;27;20145;-64
2022/09/01 02:47:55;;;;;;;2.75;1.42;;;12.80;99.90;;;;;;5093967;28;20071;-67
2022/09/01 02:50:24;;;;;;;2.28;1.40;;;12.70;99.90;;;;;;5112258;28;20481;-67
2022/09/01 02:52:53;;;;;;;4.32;1.48;;;12.70;99.90;;;;;;5117663;27;20100;-65
2022/09/01 02:55:21;;;;;;;1.58;1.45;;;12.70;99.90;;;;;;5104249;27;20040;-65
2022/09/01 02:57:54;;;;;;;2.92;1.58;;;12.60;99.90;;;;;;5116810;27;20034;-67
2022/09/01 03:00:27;;;;;;;3.30;1.70;;;12.60;99.90;;;;;;5107920;27;20031;-66
2022/09/01 03:02:55;;;;;;;1.67;1.50;;;12.50;99.90;;;;;;5122511;27;20047;-68
2022/09/01 03:05:25;;;;;;;2.40;1.50;;;12.50;99.90;;;;;;5109135;27;20078;-65
2022/09/01 03:08:00;;;;;;;2.03;1.58;;;12.40;99.90;;;;;;5112712;27;20038;-65
2022/09/01 03:10:35;;;;;;;1.67;1.30;;;12.40;99.90;;;;;;5114955;27;20050;-65
2022/09/01 03:13:05;;;;;;;2.17;1.80;;;12.30;99.90;;;;;;5117041;27;20035;-65
2022/09/01 03:15:32;;;;;;;3.38;1.88;;;12.30;99.90;;;;;;5111948;27;20397;-64
2022/09/01 03:17:59;;;;;;;2.25;1.50;;;12.30;99.90;;;;;;5099955;28;20061;-67
2022/09/01 03:20:30;;;;;;;1.65;1.45;;;12.30;99.90;;;;;;5101706;27;20050;-70
2022/09/01 03:22:57;;;;;;;3.67;1.50;;;12.30;99.90;;;;;;5123760;27;20067;-64
2022/09/01 03:25:24;;;;;;;4.20;1.60;;;12.30;99.90;;;;;;5109563;28;20092;-65
2022/09/01 03:27:53;;;;;;;4.28;1.73;;;12.30;99.90;;;;;;5124181;27;20051;-66
2022/09/01 03:30:19;;;;;;;2.80;1.40;;;12.30;99.90;;;;;;5114725;27;20075;-67
2022/09/01 03:32:46;;;;;;;2.03;1.63;;;12.20;99.90;;;;;;5115687;27;20043;-65
2022/09/01 03:35:12;;;;;;;3.90;1.50;;;12.20;99.90;;;;;;5113310;27;20048;-65
2022/09/01 03:37:38;;;;;;;2.15;1.70;;;12.20;99.90;;;;;;5122283;27;20032;-67
2022/09/01 03:40:07;;;;;;;2.67;1.58;;;12.20;99.90;;;;;;5121897;27;20035;-64
2022/09/01 03:42:34;;;;;;;1.65;1.55;;;12.20;99.90;;;;;;5116230;27;20501;-65
2022/09/01 03:45:08;;;;;;;2.08;1.30;;;12.20;99.90;;;;;;5114252;27;20062;-67
2022/09/01 03:47:40;;;;;;;2.13;1.55;;;12.10;99.90;;;;;;5105385;28;20048;-67
2022/09/01 03:50:19;;;;;;;1.83;1.70;;;12.10;99.90;;;;;;5120844;27;20140;-65
2022/09/01 03:52:50;;;;;;;1.88;1.55;;;12.10;99.90;;;;;;5106899;28;20074;-66
2022/09/01 03:55:22;;;;;;;2.25;1.60;;;12.00;99.90;;;;;;5113343;27;20040;-65
2022/09/01 03:57:56;;;;;;;5.18;1.67;;;12.00;99.90;;;;;;5112103;27;20473;-66
2022/09/01 04:00:28;;;;;;;2.25;1.75;;;12.00;99.90;;;;;;5116835;27;20104;-68
2022/09/01 04:02:57;;;;;;;2.10;1.58;;;12.00;99.90;;;;;;5100544;27;20054;-66
2022/09/01 04:05:27;;;;;;;2.08;1.80;;;11.90;99.90;;;;;;5118059;27;20044;-66
2022/09/01 04:08:01;;;;;;;2.15;1.50;;;11.90;99.90;;;;;;5118221;27;20051;-66
2022/09/01 04:10:27;;;;;;;2.75;1.70;;;11.90;99.90;;;;;;5099096;28;20039;-65
2022/09/01 04:12:55;;;;;;;1.70;1.60;;;12.00;99.90;;;;;;5117160;27;20521;-69
2022/09/01 04:15:21;;;;;;;2.25;1.60;;;11.90;99.90;;;;;;5120070;27;20047;-64
2022/09/01 04:20:38;;;;;;;4.15;1.83;;;12.00;99.90;;;;;;5116739;27;20652;-66
2022/09/01 04:23:09;;;;;;;4.97;1.80;;;12.00;99.90;;;;;;5113952;27;20154;-68
2022/09/01 04:25:37;;;;;;;4.47;1.65;;;12.00;99.90;;;;;;5121978;27;20788;-68
2022/09/01 04:28:11;;;;;;;2.42;1.60;;;11.90;99.90;;;;;;5125194;27;20044;-65
2022/09/01 04:30:39;;;;;;;3.13;1.75;;;11.90;99.90;;;;;;5113352;27;20047;-66
2022/09/01 04:33:06;;;;;;;2.50;1.80;;;11.90;99.90;;;;;;5115326;27;20142;-68
2022/09/01 04:35:37;;;;;;;5.18;2.00;;;11.90;99.90;;;;;;5122716;27;20043;-65
2022/09/01 04:38:04;;;;;;;2.28;1.90;;;11.90;99.90;;;;;;5112119;27;20040;-65
2022/09/01 04:40:30;;;;;;;3.25;1.80;;;11.90;99.90;;;;;;5115981;27;20976;-67
2022/09/01 04:42:55;;;;;;;3.75;1.92;;;11.90;99.90;;;;;;5114938;27;20050;-65
2022/09/01 04:45:26;;;;;;;3.35;1.75;;;11.90;99.90;;;;;;5115293;27;20056;-67
2022/09/01 04:47:52;;;;;;;3.33;1.90;;;11.80;99.90;;;;;;5117343;27;20240;-66
2022/09/01 04:50:18;;;;;;;3.13;1.90;;;11.80;99.90;;;;;;5103039;28;20126;-66
2022/09/01 04:52:46;;;;;;;3.63;1.80;;;11.80;99.90;;;;;;5110780;27;20052;-66
2022/09/01 04:55:16;;;;;;;2.67;1.80;;;11.80;99.90;;;;;;5109341;28;20114;-64
2022/09/01 04:57:48;;;;;;;2.00;1.70;;;11.80;99.90;;;;;;5112825;27;20396;-68
2022/09/01 05:00:21;;;;;;;3.05;1.98;;;11.90;99.90;;;;;;5109607;28;20028;-68
2022/09/01 05:02:52;;;;;;;3.08;1.52;;;11.90;99.90;;;;;;5106382;27;20043;-67
2022/09/01 05:05:20;;;;;;;2.03;1.45;;;11.90;99.90;;;;;;5110800;27;20040;-68
2022/09/01 05:07:49;;;;;;;3.85;1.67;;;11.90;99.90;;;;;;5116071;27;20144;-67
2022/09/01 05:10:17;;;;;;;3.45;1.98;;;12.00;99.90;;;;;;5120220;27;20043;-67
2022/09/01 05:12:44;;;;;;;3.53;1.83;;;12.00;99.90;;;;;;5111951;27;20044;-67
2022/09/01 05:15:11;;;;;;;4.05;2.13;;;12.00;99.90;;;;;;5110569;28;20490;-65
2022/09/01 05:17:37;;;;;;;4.63;2.00;;;12.00;99.90;;;;;;5110582;27;20036;-67
2022/09/01 05:20:03;;;;;;;2.28;1.70;;;12.10;99.90;;;;;;5119837;27;20428;-68
2022/09/01 05:22:30;;;;;;;2.25;1.55;;;12.10;99.90;;;;;;5109179;27;20035;-67
2022/09/01 05:25:01;;;;;;;3.40;1.58;;;12.10;99.90;;;;;;5108133;28;20051;-66
2022/09/01 05:27:28;;;;;;;5.72;1.80;;;12.20;99.90;;;;;;5109681;27;20067;-64
2022/09/01 05:29:53;;;;;;;5.00;1.90;;;12.20;99.90;;;;;;5109026;27;20512;-66
2022/09/01 05:32:20;;;;;;;2.65;1.70;;;12.20;99.90;;;;;;5110719;27;20040;-66
2022/09/01 05:34:46;;;;;;;2.42;1.70;;;12.30;99.90;;;;;;5108634;28;20071;-67
2022/09/01 05:37:14;;;;;;;2.08;1.88;;;12.30;99.90;;;;;;5115421;27;20134;-67
2022/09/01 05:39:40;;;;;;;3.42;1.80;;;12.40;99.90;;;;;;5115261;27;20039;-66
2022/09/01 05:42:07;;;;;;;3.63;1.75;;;12.40;99.90;;;;;;5115766;27;20154;-66
2022/09/01 05:44:33;;;;;;;3.67;1.98;;;12.50;99.90;;;;;;5106613;27;20055;-64
2022/09/01 05:46:59;;;;;;;2.92;1.90;;;12.50;99.90;;;;;;5102750;28;20035;-65
2022/09/01 05:49:27;;;;;;;2.03;1.80;;;12.60;99.90;;;;;;5117539;27;20035;-68
2022/09/01 05:51:57;;;;;;;4.13;2.20;;;12.60;99.90;;;;;;5109462;27;20039;-66
2022/09/01 05:54:26;;;;;;;4.03;2.17;;;12.70;99.90;;;;;;5083977;28;20040;-65
2022/09/01 05:56:54;;;;;;;3.70;2.00;;;12.80;99.90;;;;;;5099470;28;20039;-66
2022/09/01 05:59:22;;;;;;;4.55;1.90;;;12.90;99.90;;;;;;5107203;28;20032;-64
2022/09/01 06:01:48;;;;;;;2.95;2.20;;;13.00;99.90;;;;;;5113225;28;20123;-65
2022/09/01 06:04:14;;;;;;;3.22;1.70;;;13.00;99.90;;;;;;5117822;28;20123;-66
2022/09/01 06:06:48;;;;;;;3.28;2.20;;;13.10;99.90;;;;;;5107887;28;20043;-65
2022/09/01 06:09:16;;;;;;;2.85;1.80;;;13.20;99.90;;;;;;5113439;28;20039;-65
2022/09/01 06:11:45;;;;;;;2.90;1.80;;;13.30;99.90;;;;;;5110929;27;20557;-64
2022/09/01 06:14:14;;;;;;;4.88;2.03;;;13.40;99.90;;;;;;5107420;28;20084;-66
2022/09/01 06:16:41;;;;;;;4.93;1.92;;;13.50;99.90;;;;;;5104733;28;20085;-67
2022/09/01 06:19:06;;;;;;;3.13;1.75;;;13.60;99.90;;;;;;5107128;28;20043;-66
2022/09/01 06:21:33;;;;;;;3.80;1.90;;;13.70;99.90;;;;;;5112292;28;20040;-64
2022/09/01 06:23:59;;;;;;;2.83;1.90;;;13.80;99.90;;;;;;5111628;28;20131;-66
2022/09/01 06:26:28;;;;;;;2.80;1.80;;;13.90;99.90;;;;;;5114429;27;20126;-67
2022/09/01 06:29:02;;;;;;;8.10;1.98;;;14.10;99.90;;;;;;5108933;28;20036;-68
2022/09/01 06:31:33;;;;;;;5.32;2.00;;;14.20;99.90;;;;;;5112663;28;20042;-67
2022/09/01 06:34:04;;;;;;;2.20;1.77;;;14.40;99.90;;;;;;5118310;28;20530;-66
2022/09/01 06:36:33;;;;;;;7.20;1.88;;;14.50;99.90;;;;;;5109231;28;20039;-66
2022/09/01 06:39:01;;;;;;;4.35;2.10;;;14.60;99.90;;;;;;5107968;28;20097;-66
2022/09/01 06:41:27;;;;;;;2.70;1.95;;;14.80;99.90;;;;;;5113349;28;20048;-65
2022/09/01 06:43:54;;;;;;;2.58;1.70;;;15.00;99.90;;;;;;5106715;28;20044;-64
2022/09/01 06:46:26;;;;;;;3.55;1.77;;;15.20;99.90;;;;;;5107509;28;20493;-64
2022/09/01 06:48:52;;;;;;;3.47;1.70;;;15.30;99.90;;;;;;5113793;28;20443;-64
2022/09/01 06:51:21;;;;;;;1.77;1.60;;;15.40;99.90;;;;;;5120145;28;20035;-67
2022/09/01 06:53:55;;;;;;;2.25;1.63;;;15.50;99.90;;;;;;5122269;28;20031;-66
2022/09/01 06:56:21;;;;;;;2.53;1.80;;;15.60;99.90;;;;;;5096546;28;20485;-67
2022/09/01 06:58:47;;;;;;;3.47;1.83;;;15.80;99.90;;;;;;5115749;27;20069;-65
2022/09/01 07:01:18;;;;;;;1.73;1.35;;;16.00;99.90;;;;;;5120339;27;20066;-65
2022/09/01 07:03:46;;;;;;;4.88;1.70;;;16.10;99.90;;;;;;5109629;27;20574;-65
2022/09/01 07:06:14;;;;;;;3.28;1.70;;;16.20;99.90;;;;;;5109408;27;20044;-67
2022/09/01 07:08:42;;;;;;;2.83;1.70;;;16.40;99.90;;;;;;5110877;27;20098;-66
2022/09/01 07:11:22;;;;;;;3.50;1.60;;;16.60;99.90;;;;;;5114601;27;20437;-65
2022/09/01 07:13:52;;;;;;;3.20;1.40;;;16.70;99.90;;;;;;5106119;28;20079;-66
2022/09/01 07:16:21;;;;;;;3.20;1.50;;;16.90;99.90;;;;;;5116759;27;20089;-67
2022/09/01 07:18:48;;;;;;;1.50;1.30;;;17.00;99.90;;;;;;5130641;27;20084;-65
2022/09/01 07:21:13;;;;;;;2.30;1.45;;;17.20;99.90;;;;;;5111059;27;20083;-65
2022/09/01 07:23:40;;;;;;;3.95;1.40;;;17.30;99.90;;;;;;5113681;27;20494;-66
2022/09/01 07:26:06;;;;;;;3.10;1.60;;;17.50;99.90;;;;;;5124312;27;20047;-66
2022/09/01 07:28:33;;;;;;;4.70;1.73;;;17.70;99.90;;;;;;5112602;28;20490;-68
2022/09/01 07:30:59;;;;;;;4.38;1.50;;;17.80;99.90;;;;;;5132244;27;20088;-67
2022/09/01 07:33:26;;;;;;;2.85;1.73;;;17.90;99.90;;;;;;5132899;27;20039;-67
2022/09/01 07:35:54;;;;;;;3.83;1.50;;;18.00;99.90;;;;;;5111976;27;20047;-65
2022/09/01 07:38:24;;;;;;;4.20;1.80;;;18.10;99.90;;;;;;5121322;27;20448;-64
2022/09/01 07:40:53;;;;;;;4.22;1.50;;;18.20;99.90;;;;;;5116836;27;20428;-67
2022/09/01 07:43:26;;;;;;;4.10;1.48;;;18.30;99.90;;;;;;5116797;27;20474;-70
2022/09/01 07:45:56;;;;;;;2.88;1.67;;;18.50;99.90;;;;;;5113367;27;20095;-65
2022/09/01 07:48:24;;;;;;;1.80;1.42;;;18.60;99.90;;;;;;5115877;27;20059;-67
2022/09/01 07:50:52;;;;;;;3.55;1.60;;;18.80;99.90;;;;;;5132941;27;20422;-68
2022/09/01 07:53:31;;;;;;;4.90;1.75;;;18.80;99.90;;;;;;5132842;27;20047;-71
2022/09/01 07:56:00;;;;;;;6.45;1.67;;;18.90;99.90;;;;;;5132703;27;20483;-69
2022/09/01 07:58:28;;;;;;;4.80;1.30;;;19.10;99.90;;;;;;5132897;27;20390;-68
2022/09/01 08:00:55;;;;;;;3.95;1.33;;;19.30;99.90;;;;;;5132774;27;20042;-68
2022/09/01 08:03:24;;;;;;;5.50;1.40;;;19.40;99.90;;;;;;5132640;27;20047;-69
2022/09/01 08:05:56;;;;;;;1.48;1.10;;;19.50;99.90;;;;;;5117931;27;20070;-66
2022/09/01 08:08:22;;;;;;;3.65;1.63;;;19.50;99.90;;;;;;5122273;27;20111;-66
2022/09/01 08:10:48;;;;;;;6.40;1.25;;;19.70;99.90;;;;;;5129198;27;20047;-66
2022/09/01 08:13:13;;;;;;;4.18;1.35;;;19.80;99.90;;;;;;5132274;27;20058;-68
2022/09/01 08:15:40;;;;;;;6.57;1.50;;;19.90;99.90;;;;;;5131206;27;20100;-66
2022/09/01 08:18:06;;;;;;;1.92;1.25;;;20.10;99.90;;;;;;5125875;27;20118;-66
2022/09/01 08:20:38;;;;;;;3.00;1.40;;;20.10;99.90;;;;;;5129099;27;20461;-67
2022/09/01 08:23:04;;;;;;;2.53;1.25;;;20.20;99.90;;;;;;5123664;27;20066;-70
2022/09/01 08:25:31;;;;;;;3.55;1.33;;;20.40;99.90;;;;;;5132316;27;20039;-67
2022/09/01 08:27:57;;;;;;;2.08;1.40;;;20.50;99.90;;;;;;5110943;28;20047;-67
2022/09/01 08:30:23;;;;;;;2.78;1.20;;;20.80;99.90;;;;;;5127103;27;20441;-68
2022/09/01 08:32:49;;;;;;;6.50;1.33;;;21.00;99.90;;;;;;5121301;27;20071;-67
2022/09/01 08:35:15;;;;;;;3.33;1.48;;;21.10;99.40;;;;;;5111397;28;20047;-68
2022/09/01 08:37:42;;;;;;;4.07;1.35;;;21.20;99.10;;;;;;5111181;28;20070;-67
2022/09/01 08:40:13;;;;;;;3.60;1.40;;;21.30;99.10;;;;;;5129933;27;20031;-65
2022/09/01 08:43:05;;;;;;;3.30;1.10;;;21.40;98.60;;;;;;5114440;27;20036;-64
2022/09/01 08:45:52;;;;;;;2.83;1.38;;;21.50;98.10;;;;;;5094575;27;20047;-65
2022/09/01 08:48:33;;;;;;;1.77;1.13;;;21.50;98.20;;;;;;5111164;27;20056;-66
2022/09/01 08:51:27;;;;;;;5.15;1.33;;;21.70;97.70;;;;;;5130772;27;20447;-67
2022/09/01 08:54:28;;;;;;;2.92;1.20;;;21.80;97.60;;;;;;5022480;28;20440;-67
2022/09/01 08:56:59;;;;;;;5.07;1.15;;;21.90;97.20;;;;;;5019138;28;20076;-66
2022/09/01 08:59:26;;;;;;;1.80;1.00;;;22.10;97.50;;;;;;5035803;28;20531;-69
2022/09/01 09:02:13;;;;;;;2.55;1.23;;;22.20;97.40;;;;;;5047832;28;20485;-66
2022/09/01 09:04:52;;;;;;;3.47;1.05;;;22.30;96.70;;;;;;5012886;28;20053;-65
2022/09/01 09:07:42;;;;;;;2.28;0.98;;;22.40;96.70;;;;;;5030205;28;20053;-69
2022/09/01 09:10:13;;;;;;;3.42;1.35;;;22.50;96.00;;;;;;5026786;28;20049;-66
2022/09/01 09:13:05;;;;;;;2.13;0.90;;;22.70;96.00;;;;;;5012729;28;20056;-65
2022/09/01 09:15:50;;;;;;;3.05;1.15;;;22.70;95.60;;;;;;4954066;28;20089;-68
2022/09/01 09:18:36;;;;;;;1.85;0.82;;;22.80;95.40;;;;;;4962243;28;20054;-68
2022/09/01 09:21:16;;;;;;;1.85;0.98;;;22.90;95.50;;;;;;4968819;28;20042;-68
2022/09/01 09:23:45;;;;;;;3.70;1.10;;;23.00;95.00;;;;;;4957361;28;20050;-71
2022/09/01 09:26:12;;;;;;;2.97;0.95;;;23.00;94.70;;;;;;4970064;28;20047;-68
2022/09/01 09:28:38;;;;;;;1.20;0.70;;;23.10;94.60;;;;;;4958511;28;20039;-65
2022/09/01 09:31:41;;;;;;;1.75;0.75;;;23.20;94.20;;;;;;5030652;28;20442;-67
2022/09/01 09:34:27;;;;;;;2.65;0.90;;;23.30;93.80;;;;;;5069167;28;20137;-67
2022/09/01 09:36:53;;;;;;;3.97;0.90;;;23.60;94.30;;;;;;5072004;28;20115;-67
2022/09/01 09:39:18;;;;;;;3.55;0.70;;;23.70;93.50;;;;;;5069214;28;20135;-67
2022/09/01 09:42:08;;;;;;;2.22;0.70;;;23.80;93.20;;;;;;5073204;28;20075;-67
2022/09/01 09:44:43;;;;;;;2.38;0.77;;;24.00;93.00;;;;;;5060145;28;20064;-67
2022/09/01 09:47:09;;;;;;;0.98;0.55;;;24.00;92.60;;;;;;5059477;28;20105;-67
2022/09/01 09:49:35;;;;;;;2.05;0.98;;;24.00;92.10;;;;;;5072042;28;20105;-66
2022/09/01 09:52:01;;;;;;;2.88;0.95;;;24.20;92.10;;;;;;5100190;27;20043;-64
2022/09/01 09:54:32;;;;;;;3.28;0.80;;;24.10;91.50;;;;;;5127399;27;20045;-66
2022/09/01 09:57:07;;;;;;;1.60;0.65;;;24.20;91.70;;;;;;5121236;27;20382;-67
2022/09/01 09:59:38;;;;;;;2.17;0.80;;;24.50;92.00;;;;;;5129313;28;20114;-68
2022/09/01 10:02:16;;;;;;;3.20;0.70;;;24.60;90.80;;;;;;5130387;27;20088;-65
2022/09/01 10:04:42;;;;;;;2.10;0.88;;;24.70;90.40;;;;;;5118855;28;20036;-70
2022/09/01 10:07:35;;;;;;;3.95;0.80;;;24.60;90.30;;;;;;5125578;28;20331;-68
2022/09/01 10:10:06;;;;;;;2.60;1.13;;;24.70;90.80;;;;;;5124472;28;20112;-70
2022/09/01 10:12:32;;;;;;;1.98;0.70;;;24.80;90.10;;;;;;5098512;28;20047;-65
2022/09/01 10:15:09;;;;;;;1.35;0.70;;;24.70;90.20;;;;;;5121213;28;20039;-65
2022/09/01 10:17:40;;;;;;;8.20;1.25;;;24.60;90.10;;;;;;5128379;27;20035;-69
2022/09/01 10:20:20;;;;;;;2.85;0.80;;;24.20;90.00;;;;;;5125043;28;20038;-66
2022/09/01 10:22:47;;;;;;;1.90;0.80;;;23.80;90.20;;;;;;5124391;28;20528;-67
2022/09/01 10:25:18;;;;;;;1.50;0.90;;;24.00;90.10;;;;;;5126844;27;20405;-66
2022/09/01 10:27:49;;;;;;;1.05;0.57;;;24.40;90.30;;;;;;5129665;27;20035;-68
2022/09/01 10:30:17;;;;;;;2.33;0.70;;;24.40;88.20;;;;;;5122974;28;20044;-67
2022/09/01 10:32:52;;;;;;;2.40;0.70;;;24.60;88.40;;;;;;5130807;27;20043;-67
2022/09/01 10:35:22;;;;;;;1.88;0.60;;;24.80;88.30;;;;;;5126687;27;20077;-71
2022/09/01 10:37:49;;;;;;;2.45;0.85;;;25.10;87.10;;;;;;5125574;27;20450;-69
2022/09/01 10:40:27;;;;;;;0.88;0.70;;;25.40;86.60;;;;;;5125722;27;20428;-66
2022/09/01 10:43:22;;;;;;;4.07;0.95;;;25.70;86.40;;;;;;5119317;27;20050;-67
2022/09/01 10:45:47;;;;;;;1.50;0.68;;;25.60;86.50;;;;;;5035328;28;20056;-65
2022/09/01 10:48:32;;;;;;;1.40;0.60;;;25.60;86.10;;;;;;5035114;28;20053;-67
2022/09/01 10:51:13;;;;;;;4.57;0.70;;;25.80;84.40;;;;;;5035628;28;20053;-68
2022/09/01 10:53:42;;;;;;;0.88;0.50;;;26.20;86.70;;;;;;5043798;28;20037;-67
2022/09/01 10:56:16;;;;;;;2.53;0.70;;;26.50;83.80;;;;;;5035153;28;20076;-69
2022/09/01 10:59:06;;;;;;;2.13;0.73;;;26.50;81.60;;;;;;5035264;28;20475;-66
2022/09/01 11:01:44;;;;;;;0.60;0.50;;;26.50;79.10;;;;;;5037845;28;20097;-68
2022/09/01 11:04:14;;;;;;;0.77;0.60;;;26.10;79.50;;;;;;5034892;28;20128;-68
2022/09/01 11:07:00;;;;;;;2.38;0.80;;;25.50;79.80;;;;;;5035019;28;20514;-70
2022/09/01 11:09:33;;;;;;;2.85;0.70;;;24.80;80.50;;;;;;5018466;28;20057;-67
2022/09/01 11:12:28;;;;;;;3.20;0.50;;;24.60;80.50;;;;;;5034714;28;20072;-68
2022/09/01 11:15:03;;;;;;;2.28;0.65;;;24.60;80.50;;;;;;5051416;28;20064;-68
2022/09/01 11:17:54;;;;;;;1.92;0.60;;;24.80;81.70;;;;;;5033851;28;20095;-67
2022/09/01 11:20:32;;;;;;;3.58;0.50;;;25.00;82.50;;;;;;5034470;28;20044;-66
2022/09/01 11:23:21;;;;;;;3.00;0.60;;;25.40;81.70;;;;;;5083367;27;20055;-66
2022/09/01 11:25:56;;;;;;;1.00;0.90;;;25.70;80.40;;;;;;5121443;27;20045;-68
2022/09/01 11:28:31;;;;;;;2.05;0.50;;;25.40;80.00;;;;;;5127836;27;20046;-66
2022/09/01 11:31:05;;;;;;;0.90;0.60;;;25.40;80.90;;;;;;5133289;27;20039;-68
2022/09/01 11:33:57;;;;;;;3.60;0.73;;;25.60;81.10;;;;;;5124732;27;20043;-67
2022/09/01 11:36:30;;;;;;;4.22;0.70;;;26.00;80.40;;;;;;5118459;27;20389;-66
2022/09/01 11:39:17;;;;;;;1.55;0.47;;;26.00;79.00;;;;;;5129386;27;20038;-68
2022/09/01 11:41:43;;;;;;;1.25;0.60;;;26.00;78.90;;;;;;5123919;27;20058;-66
2022/09/01 11:44:25;;;;;;;2.80;0.60;;;25.90;78.60;;;;;;5126529;27;20051;-65
2022/09/01 11:46:58;;;;;;;1.25;0.55;;;25.80;78.00;;;;;;5113032;27;20134;-67
2022/09/01 11:49:29;;;;;;;;;;;26.00;78.20;;;;;;5133638;27;20579;-67
2022/09/01 11:51:57;;;;;;;0.63;0.60;;;26.00;80.40;;;;;;5132782;27;19923;-68
2022/09/01 11:54:23;;;;;;;0.50;0.47;;;26.20;77.50;;;;;;5132802;27;20050;-67
2022/09/01 11:56:49;;;;;;;0.40;0.35;;;26.30;77.30;;;;;;5115566;27;20070;-68
2022/09/01 11:59:33;;;;;;;0.68;0.40;;;26.30;75.90;;;;;;5132843;27;20595;-67
2022/09/01 12:02:00;;;;;;;1.20;0.50;;;26.30;75.30;;;;;;5113817;27;20047;-68
2022/09/01 12:04:32;;;;;;;1.95;0.60;;;26.20;74.80;;;;;;5115103;27;20096;-65
2022/09/01 12:07:09;;;;;;;1.45;0.60;;;26.10;74.40;;;;;;5117784;27;20079;-64
2022/09/01 12:09:41;;;;;;;1.92;0.50;;;26.00;74.80;;;;;;5130082;27;20039;-65
2022/09/01 12:12:32;;;;;;;1.50;0.60;;;26.10;75.10;;;;;;5132563;27;20076;-66
2022/09/01 12:15:01;;;;;;;1.13;0.50;;;26.00;75.40;;;;;;5131550;27;20490;-68
2022/09/01 12:17:27;;;;;;;1.30;0.60;;;25.70;75.20;;;;;;5128973;27;20039;-69
2022/09/01 12:19:53;;;;;;;1.60;0.60;;;25.60;75.80;;;;;;5132073;27;20118;-67
2022/09/01 12:22:21;;;;;;;3.25;0.70;;;25.60;76.60;;;;;;5111304;28;20087;-66
2022/09/01 12:24:53;;;;;;;0.68;0.40;;;25.70;76.20;;;;;;5127703;27;20039;-66
2022/09/01 12:27:19;;;;;;;;;;;25.70;75.70;;;;;;5110347;27;20039;-66
2022/09/01 12:29:45;;;;;;;2.25;0.70;;;25.70;75.40;;;;;;5132943;27;20009;-67
2022/09/01 12:32:14;;;;;;;1.15;0.60;;;25.50;74.60;;;;;;5129210;27;20047;-66
2022/09/01 12:34:43;;;;;;;2.10;0.90;;;25.30;74.30;;;;;;5129033;27;20122;-67
2022/09/01 12:37:15;;;;;;;3.05;0.60;;;25.30;74.60;;;;;;5126452;27;20066;-65
2022/09/01 12:39:43;;;;;;;1.52;0.60;;;25.20;74.50;;;;;;5113961;27;20035;-69
2022/09/01 12:42:18;;;;;;;3.03;0.65;;;25.20;74.80;;;;;;5117044;27;20043;-65
2022/09/01 12:44:53;;;;;;;2.15;0.50;;;25.20;75.80;;;;;;5129099;27;20047;-67
2022/09/01 12:47:39;;;;;;;1.05;0.60;;;25.20;76.70;;;;;;5111537;27;20047;-70
2022/09/01 12:50:14;;;;;;;1.25;0.60;;;25.20;76.00;;;;;;5109324;28;20481;-67
2022/09/01 12:53:00;;;;;;;0.73;0.63;;;25.10;75.60;;;;;;5119495;27;20043;-65
2022/09/01 12:55:32;;;;;;;1.38;0.70;;;25.10;76.00;;;;;;5123909;27;20039;-67
2022/09/01 12:57:59;;;;;;;0.70;0.70;;;25.00;75.00;;;;;;5123107;27;20048;-65
2022/09/01 13:00:31;;;;;;;0.65;0.57;;;24.90;74.10;;;;;;5117907;27;20043;-68
2022/09/01 13:03:13;;;;;;;3.63;0.60;;;24.70;74.10;;;;;;5131732;27;20039;-67
2022/09/01 13:05:42;;;;;;;;;;;24.60;74.00;;;;;;5090602;28;20039;-65
2022/09/01 13:08:16;;;;;;;2.58;0.70;;;24.60;75.40;;;;;;5113914;27;19915;-69
2022/09/01 13:10:46;;;;;;;2.25;0.60;;;24.60;74.60;;;;;;5127671;27;20079;-67
2022/09/01 13:13:13;;;;;;;1.02;0.60;;;24.60;75.10;;;;;;5122056;27;20122;-67